createdAt,value
2019-05-03T00:00:19.131Z,74.67
2019-05-03T00:01:19.100Z,74.48
2019-05-03T00:02:19.066Z,74.87
2019-05-03T00:03:19.017Z,74.39
2019-05-03T00:04:18.996Z,74.29
2019-05-03T00:05:18.965Z,74.58
2019-05-03T00:06:18.921Z,74.48
2019-05-03T00:07:18.887Z,73.91
2019-05-03T00:08:18.858Z,75.24
2019-05-03T00:09:18.834Z,74.58
2019-05-03T00:10:18.785Z,74.20
2019-05-03T00:11:18.746Z,74.58
2019-05-03T00:12:18.715Z,74.39
2019-05-03T00:13:18.679Z,74.67
2019-05-03T00:14:18.654Z,74.48
2019-05-03T00:15:18.605Z,74.48
2019-05-03T00:16:18.571Z,75.53
2019-05-03T00:17:18.542Z,74.87
2019-05-03T00:18:18.498Z,75.43
2019-05-03T00:19:18.472Z,75.28
2019-05-03T00:20:18.429Z,74.80
2019-05-03T00:21:18.398Z,74.43
2019-05-03T00:22:18.363Z,75.85
2019-05-03T00:23:18.331Z,74.80
2019-05-03T00:24:18.298Z,74.62
2019-05-03T00:25:18.256Z,74.99
2019-05-03T00:26:18.228Z,76.14
2019-05-03T00:27:18.183Z,76.10
2019-05-03T00:28:18.156Z,76.10
2019-05-03T00:29:18.113Z,76.10
2019-05-03T00:30:18.079Z,75.53
2019-05-03T00:31:18.040Z,74.90
2019-05-03T00:32:18.016Z,74.43
2019-05-03T00:33:17.977Z,74.99
2019-05-03T00:34:17.932Z,74.80
2019-05-03T00:35:17.902Z,75.57
2019-05-03T00:36:17.872Z,75.09
2019-05-03T00:37:17.839Z,75.19
2019-05-03T00:38:17.802Z,76.23
2019-05-03T00:39:17.767Z,74.90
2019-05-03T00:40:17.734Z,74.80
2019-05-03T00:41:17.705Z,74.43
2019-05-03T00:42:17.668Z,76.14
2019-05-03T00:43:17.619Z,76.04
2019-05-03T00:44:17.589Z,74.90
2019-05-03T00:45:17.553Z,75.47
2019-05-03T00:46:17.522Z,75.85
2019-05-03T00:47:17.478Z,75.47
2019-05-03T00:48:17.463Z,76.14
2019-05-03T00:49:17.419Z,75.62
2019-05-03T00:50:17.376Z,75.34
2019-05-03T00:51:17.348Z,75.57
2019-05-03T00:52:17.315Z,74.90
2019-05-03T00:53:17.278Z,74.96
2019-05-03T00:54:17.247Z,74.14
2019-05-03T00:55:19.328Z,75.19
2019-05-03T00:56:17.163Z,74.80
2019-05-03T00:57:17.142Z,75.85
2019-05-03T00:58:17.100Z,75.57
2019-05-03T00:59:17.058Z,74.99
2019-05-03T01:00:17.030Z,74.90
2019-05-03T01:01:16.998Z,74.62
2019-05-03T01:02:16.958Z,74.43
2019-05-03T01:03:16.934Z,75.19
2019-05-03T01:04:16.890Z,75.76
2019-05-03T01:05:16.865Z,75.57
2019-05-03T01:06:16.820Z,75.09
2019-05-03T01:07:16.779Z,75.57
2019-05-03T01:08:16.748Z,75.95
2019-05-03T01:09:16.718Z,75.85
2019-05-03T01:10:16.675Z,75.09
2019-05-03T01:11:16.642Z,75.57
2019-05-03T01:12:16.609Z,75.76
2019-05-03T01:13:16.570Z,75.95
2019-05-03T01:14:16.538Z,75.47
2019-05-03T01:15:16.511Z,75.85
2019-05-03T01:16:16.469Z,75.85
2019-05-03T01:17:16.428Z,76.23
2019-05-03T01:18:16.406Z,77.00
2019-05-03T01:19:16.371Z,76.42
2019-05-03T01:20:16.329Z,75.57
2019-05-03T01:21:16.303Z,76.14
2019-05-03T01:22:16.249Z,76.14
2019-05-03T01:23:16.228Z,75.57
2019-05-03T01:24:18.270Z,75.95
2019-05-03T01:25:28.819Z,76.23
2019-05-03T01:26:16.125Z,75.47
2019-05-03T01:27:16.086Z,74.99
2019-05-03T01:28:16.049Z,76.42
2019-05-03T01:29:16.011Z,76.61
2019-05-03T01:30:15.976Z,76.71
2019-05-03T01:31:15.959Z,76.23
2019-05-03T01:32:15.909Z,76.71
2019-05-03T01:33:15.877Z,76.33
2019-05-03T01:34:15.842Z,75.38
2019-05-03T01:35:15.807Z,76.42
2019-05-03T01:36:15.766Z,75.76
2019-05-03T01:37:15.736Z,76.42
2019-05-03T01:38:15.703Z,76.23
2019-05-03T01:39:15.657Z,76.71
2019-05-03T01:40:15.622Z,76.61
2019-05-03T01:41:15.590Z,75.95
2019-05-03T01:42:15.552Z,76.90
2019-05-03T01:43:15.533Z,76.61
2019-05-03T01:44:15.495Z,77.47
2019-05-03T01:45:15.454Z,76.14
2019-05-03T01:46:15.417Z,77.28
2019-05-03T01:47:15.382Z,77.09
2019-05-03T01:48:15.347Z,76.42
2019-05-03T01:49:15.315Z,76.42
2019-05-03T01:50:15.273Z,76.23
2019-05-03T01:51:15.246Z,77.47
2019-05-03T01:52:15.203Z,75.95
2019-05-03T01:53:15.216Z,76.90
2019-05-03T01:54:15.133Z,76.23
2019-05-03T01:55:16.015Z,76.33
2019-05-03T01:56:15.072Z,76.71
2019-05-03T01:57:15.032Z,76.52
2019-05-03T01:58:14.998Z,76.33
2019-05-03T01:59:14.969Z,77.09
2019-05-03T02:00:14.924Z,76.71
2019-05-03T02:01:14.891Z,76.14
2019-05-03T02:02:14.857Z,76.04
2019-05-03T02:03:14.821Z,76.52
2019-05-03T02:04:14.783Z,76.04
2019-05-03T02:05:14.754Z,75.85
2019-05-03T02:06:14.732Z,75.95
2019-05-03T02:07:14.688Z,76.14
2019-05-03T02:08:14.654Z,76.33
2019-05-03T02:09:14.606Z,76.42
2019-05-03T02:10:14.577Z,75.85
2019-05-03T02:11:14.538Z,76.52
2019-05-03T02:12:14.524Z,76.90
2019-05-03T02:13:14.477Z,76.90
2019-05-03T02:14:14.445Z,77.00
2019-05-03T02:15:14.399Z,76.71
2019-05-03T02:16:14.375Z,75.95
2019-05-03T02:17:14.328Z,76.61
2019-05-03T02:18:15.158Z,77.09
2019-05-03T02:19:14.264Z,76.23
2019-05-03T02:20:14.224Z,76.23
2019-05-03T02:21:14.198Z,76.23
2019-05-03T02:22:14.155Z,76.90
2019-05-03T02:23:14.119Z,76.42
2019-05-03T02:24:14.090Z,76.71
2019-05-03T02:25:14.054Z,76.04
2019-05-03T02:26:14.018Z,75.85
2019-05-03T02:27:13.983Z,76.61
2019-05-03T02:28:13.944Z,76.42
2019-05-03T02:29:13.922Z,75.85
2019-05-03T02:30:14.526Z,75.95
2019-05-03T02:31:13.946Z,76.81
2019-05-03T02:32:13.809Z,77.76
2019-05-03T02:33:13.775Z,77.00
2019-05-03T02:34:13.740Z,77.19
2019-05-03T02:35:14.131Z,77.66
2019-05-03T02:36:13.918Z,76.33
2019-05-03T02:37:14.060Z,77.37
2019-05-03T02:38:13.602Z,77.95
2019-05-03T02:39:13.788Z,77.95
2019-05-03T02:40:13.539Z,77.56
2019-05-03T02:41:13.703Z,77.37
2019-05-03T02:42:16.082Z,77.19
2019-05-03T02:43:16.393Z,77.56
2019-05-03T02:44:15.632Z,76.23
2019-05-03T02:45:15.458Z,77.09
2019-05-03T02:46:16.470Z,76.90
2019-05-03T02:47:15.768Z,76.90
2019-05-03T02:48:13.245Z,77.66
2019-05-03T02:49:15.335Z,77.66
2019-05-03T02:50:16.449Z,76.61
2019-05-03T02:51:15.597Z,77.09
2019-05-03T02:52:15.118Z,76.71
2019-05-03T02:53:13.084Z,76.23
2019-05-03T02:54:15.509Z,78.42
2019-05-03T02:55:15.711Z,77.28
2019-05-03T02:56:18.221Z,78.80
2019-05-03T02:57:15.034Z,78.33
2019-05-03T02:58:15.705Z,77.56
2019-05-03T02:59:15.476Z,78.33
2019-05-03T03:00:15.979Z,77.56
2019-05-03T03:01:15.962Z,78.80
2019-05-03T03:02:14.800Z,78.23
2019-05-03T03:03:12.763Z,78.14
2019-05-03T03:04:15.476Z,78.71
2019-05-03T03:05:12.656Z,78.14
2019-05-03T03:06:15.513Z,78.23
2019-05-03T03:07:15.025Z,78.71
2019-05-03T03:08:12.555Z,78.90
2019-05-03T03:09:12.522Z,79.28
2019-05-03T03:10:12.482Z,79.09
2019-05-03T03:11:15.401Z,79.38
2019-05-03T03:12:15.118Z,78.71
2019-05-03T03:13:12.372Z,78.71
2019-05-03T03:14:12.336Z,79.28
2019-05-03T03:15:12.315Z,79.57
2019-05-03T03:16:12.276Z,79.05
2019-05-03T03:17:12.230Z,79.38
2019-05-03T03:18:12.202Z,79.28
2019-05-03T03:19:12.167Z,79.38
2019-05-03T03:20:12.136Z,78.71
2019-05-03T03:21:12.093Z,78.71
2019-05-03T03:22:12.063Z,78.19
2019-05-03T03:23:17.310Z,78.33
2019-05-03T03:24:11.988Z,78.77
2019-05-03T03:25:11.961Z,78.10
2019-05-03T03:26:11.914Z,78.04
2019-05-03T03:27:11.880Z,77.66
2019-05-03T03:28:11.852Z,78.42
2019-05-03T03:29:11.809Z,78.00
2019-05-03T03:30:11.779Z,77.47
2019-05-03T03:31:11.742Z,77.34
2019-05-03T03:32:11.748Z,77.53
2019-05-03T03:33:11.683Z,78.19
2019-05-03T03:34:11.655Z,77.24
2019-05-03T03:35:12.969Z,76.96
2019-05-03T03:36:42.175Z,77.53
2019-05-03T03:37:11.551Z,77.28
2019-05-03T03:38:11.505Z,78.29
2019-05-03T03:39:11.464Z,77.62
2019-05-03T03:40:11.426Z,77.72
2019-05-03T03:41:11.417Z,77.62
2019-05-03T03:42:11.359Z,77.24
2019-05-03T03:43:11.323Z,77.24
2019-05-03T03:44:11.287Z,78.29
2019-05-03T03:45:11.252Z,77.53
2019-05-03T03:46:11.216Z,77.43
2019-05-03T03:47:11.181Z,76.96
2019-05-03T03:48:11.147Z,77.81
2019-05-03T03:49:11.285Z,77.05
2019-05-03T03:50:11.075Z,77.15
2019-05-03T03:51:11.045Z,77.53
2019-05-03T03:52:11.005Z,78.29
2019-05-03T03:53:10.975Z,77.43
2019-05-03T03:54:10.930Z,77.43
2019-05-03T03:55:10.901Z,77.43
2019-05-03T03:56:10.878Z,76.96
2019-05-03T03:57:10.841Z,76.86
2019-05-03T03:58:10.801Z,77.05
2019-05-03T03:59:10.765Z,77.05
2019-05-03T04:00:10.721Z,77.43
2019-05-03T04:01:10.683Z,77.24
2019-05-03T04:02:10.659Z,77.62
2019-05-03T04:03:10.621Z,77.53
2019-05-03T04:04:10.587Z,77.72
2019-05-03T04:05:10.577Z,78.19
2019-05-03T04:06:10.523Z,77.43
2019-05-03T04:07:10.469Z,76.86
2019-05-03T04:08:10.442Z,77.43
2019-05-03T04:09:10.409Z,78.10
2019-05-03T04:10:10.373Z,78.19
2019-05-03T04:11:10.339Z,78.19
2019-05-03T04:12:10.299Z,78.19
2019-05-03T04:13:10.261Z,77.53
2019-05-03T04:14:10.223Z,78.29
2019-05-03T04:15:10.193Z,78.38
2019-05-03T04:16:10.159Z,78.77
2019-05-03T04:17:10.125Z,78.57
2019-05-03T04:18:10.107Z,78.38
2019-05-03T04:19:10.061Z,78.67
2019-05-03T04:20:10.022Z,79.33
2019-05-03T04:21:09.980Z,78.67
2019-05-03T04:22:09.945Z,78.96
2019-05-03T04:23:09.911Z,79.33
2019-05-03T04:24:09.889Z,79.05
2019-05-03T04:25:09.840Z,79.14
2019-05-03T04:26:09.800Z,79.52
2019-05-03T04:27:18.743Z,79.43
2019-05-03T04:28:09.735Z,78.96
2019-05-03T04:29:09.701Z,78.38
2019-05-03T04:30:09.665Z,78.96
2019-05-03T04:31:09.626Z,79.14
2019-05-03T04:32:09.599Z,78.86
2019-05-03T04:33:09.563Z,78.77
2019-05-03T04:34:09.528Z,79.33
2019-05-03T04:35:09.485Z,78.77
2019-05-03T04:36:09.458Z,78.86
2019-05-03T04:37:09.416Z,78.67
2019-05-03T04:38:09.381Z,79.14
2019-05-03T04:39:09.337Z,79.24
2019-05-03T04:40:09.313Z,79.24
2019-05-03T04:41:09.272Z,79.24
2019-05-03T04:42:09.242Z,80.29
2019-05-03T04:43:09.211Z,79.24
2019-05-03T04:44:09.174Z,80.47
2019-05-03T04:45:09.126Z,80.66
2019-05-03T04:46:09.106Z,81.05
2019-05-03T04:47:09.061Z,79.52
2019-05-03T04:48:09.031Z,80.00
2019-05-03T04:49:08.996Z,80.47
2019-05-03T04:50:08.959Z,80.29
2019-05-03T04:51:08.931Z,80.76
2019-05-03T04:52:08.889Z,80.29
2019-05-03T04:53:08.851Z,80.76
2019-05-03T04:54:08.817Z,79.81
2019-05-03T04:55:08.789Z,79.05
2019-05-03T04:56:08.754Z,79.81
2019-05-03T04:57:08.728Z,80.47
2019-05-03T04:58:08.672Z,80.57
2019-05-03T04:59:08.643Z,80.57
2019-05-03T05:00:11.243Z,81.43
2019-05-03T05:01:08.563Z,81.62
2019-05-03T05:02:08.535Z,81.81
2019-05-03T05:03:08.493Z,81.05
2019-05-03T05:04:08.467Z,81.43
2019-05-03T05:05:08.428Z,81.05
2019-05-03T05:06:08.398Z,81.43
2019-05-03T05:07:08.361Z,81.05
2019-05-03T05:08:08.323Z,82.28
2019-05-03T05:09:08.280Z,82.76
2019-05-03T05:10:08.248Z,82.67
2019-05-03T05:11:10.576Z,82.00
2019-05-03T05:12:08.174Z,83.90
2019-05-03T05:13:08.140Z,81.90
2019-05-03T05:14:08.113Z,82.86
2019-05-03T05:15:08.070Z,82.67
2019-05-03T05:16:08.039Z,83.71
2019-05-03T05:17:08.000Z,83.81
2019-05-03T05:18:07.974Z,83.81
2019-05-03T05:19:07.939Z,83.33
2019-05-03T05:20:07.895Z,83.23
2019-05-03T05:21:07.863Z,83.23
2019-05-03T05:22:07.836Z,82.95
2019-05-03T05:23:07.799Z,83.09
2019-05-03T05:24:07.759Z,83.09
2019-05-03T05:25:07.728Z,83.09
2019-05-03T05:26:07.698Z,83.37
2019-05-03T05:27:07.649Z,83.09
2019-05-03T05:28:07.623Z,82.70
2019-05-03T05:29:07.579Z,82.61
2019-05-03T05:30:07.555Z,83.37
2019-05-03T05:31:07.523Z,83.37
2019-05-03T05:32:07.481Z,83.85
2019-05-03T05:33:07.441Z,83.85
2019-05-03T05:34:08.857Z,83.47
2019-05-03T05:35:07.378Z,83.94
2019-05-03T05:36:07.335Z,83.85
2019-05-03T05:37:07.304Z,83.56
2019-05-03T05:38:07.267Z,83.85
2019-05-03T05:39:07.231Z,83.94
2019-05-03T05:40:07.194Z,83.56
2019-05-03T05:41:07.159Z,84.42
2019-05-03T05:42:07.129Z,84.89
2019-05-03T05:43:07.089Z,83.94
2019-05-03T05:44:07.056Z,83.65
2019-05-03T05:45:07.022Z,83.75
2019-05-03T05:46:06.991Z,83.65
2019-05-03T05:47:06.952Z,83.94
2019-05-03T05:48:06.922Z,84.23
2019-05-03T05:49:06.890Z,83.85
2019-05-03T05:50:06.851Z,84.33
2019-05-03T05:51:06.806Z,84.89
2019-05-03T05:52:06.787Z,86.04
2019-05-03T05:53:06.742Z,84.89
2019-05-03T05:54:06.718Z,84.99
2019-05-03T05:55:06.667Z,85.75
2019-05-03T05:56:06.636Z,85.47
2019-05-03T05:57:08.464Z,84.52
2019-05-03T05:58:08.372Z,84.99
2019-05-03T05:59:06.533Z,85.08
2019-05-03T06:00:06.506Z,85.75
2019-05-03T06:01:06.462Z,87.18
2019-05-03T06:02:06.428Z,86.70
2019-05-03T06:03:06.390Z,86.22
2019-05-03T06:04:06.356Z,87.75
2019-05-03T06:05:06.340Z,87.85
2019-05-03T06:06:06.288Z,87.56
2019-05-03T06:07:06.255Z,87.94
2019-05-03T06:08:06.213Z,87.85
2019-05-03T06:09:06.181Z,87.27
2019-05-03T06:10:06.152Z,86.70
2019-05-03T06:11:06.111Z,87.56
2019-05-03T06:12:06.072Z,88.51
2019-05-03T06:13:06.047Z,87.75
2019-05-03T06:14:06.012Z,87.65
2019-05-03T06:15:05.962Z,87.75
2019-05-03T06:16:05.946Z,86.61
2019-05-03T06:17:05.913Z,87.56
2019-05-03T06:18:05.876Z,88.60
2019-05-03T06:19:05.838Z,87.94
2019-05-03T06:20:05.811Z,88.23
2019-05-03T06:21:05.766Z,88.23
2019-05-03T06:22:05.728Z,88.23
2019-05-03T06:23:05.690Z,87.65
2019-05-03T06:24:05.653Z,88.70
2019-05-03T06:25:06.633Z,87.65
2019-05-03T06:26:05.592Z,88.23
2019-05-03T06:27:05.572Z,88.51
2019-05-03T06:28:17.690Z,88.13
2019-05-03T06:29:05.488Z,88.13
2019-05-03T06:30:05.447Z,87.85
2019-05-03T06:31:05.426Z,87.94
2019-05-03T06:32:05.523Z,88.27
2019-05-03T06:33:05.433Z,89.18
2019-05-03T06:34:05.328Z,88.70
2019-05-03T06:35:05.288Z,88.08
2019-05-03T06:36:05.239Z,88.65
2019-05-03T06:37:05.209Z,88.75
2019-05-03T06:38:05.160Z,88.56
2019-05-03T06:39:08.129Z,88.08
2019-05-03T06:40:06.090Z,88.75
2019-05-03T06:41:05.062Z,87.98
2019-05-03T06:42:05.267Z,89.32
2019-05-03T06:43:11.346Z,88.37
2019-05-03T06:44:04.964Z,88.65
2019-05-03T06:45:10.394Z,88.56
2019-05-03T06:46:05.418Z,88.93
2019-05-03T06:47:06.725Z,88.75
2019-05-03T06:48:05.524Z,88.08
2019-05-03T06:49:06.600Z,88.75
2019-05-03T06:50:05.498Z,89.79
2019-05-03T06:51:09.195Z,87.89
2019-05-03T06:52:05.911Z,88.56
2019-05-03T06:53:10.338Z,89.41
2019-05-03T06:54:05.087Z,88.93
2019-05-03T06:55:08.553Z,88.27
2019-05-03T06:56:04.709Z,88.84
2019-05-03T06:57:07.744Z,88.93
2019-05-03T06:58:05.106Z,90.60
2019-05-03T06:59:05.259Z,87.46
2019-05-03T07:00:05.310Z,89.65
2019-05-03T07:01:04.692Z,88.37
2019-05-03T07:02:05.636Z,88.75
2019-05-03T07:03:04.914Z,89.61
2019-05-03T07:04:05.106Z,87.98
2019-05-03T07:05:05.081Z,88.46
2019-05-03T07:06:04.553Z,88.46
2019-05-03T07:07:05.236Z,87.51
2019-05-03T07:08:05.133Z,88.41
2019-05-03T07:09:05.308Z,87.89
2019-05-03T07:10:05.032Z,88.22
2019-05-03T07:11:05.209Z,88.41
2019-05-03T07:12:04.542Z,87.36
2019-05-03T07:13:05.004Z,86.88
2019-05-03T07:14:05.267Z,87.46
2019-05-03T07:15:05.248Z,88.22
2019-05-03T07:16:04.641Z,86.32
2019-05-03T07:17:05.547Z,88.22
2019-05-03T07:18:05.831Z,86.69
2019-05-03T07:19:04.472Z,87.36
2019-05-03T07:20:04.680Z,87.46
2019-05-03T07:21:04.875Z,86.41
2019-05-03T07:22:05.015Z,86.60
2019-05-03T07:23:04.367Z,87.27
2019-05-03T07:24:05.294Z,87.55
2019-05-03T07:25:04.674Z,86.41
2019-05-03T07:26:05.213Z,86.69
2019-05-03T07:27:05.294Z,86.93
2019-05-03T07:28:04.415Z,86.55
2019-05-03T07:29:05.009Z,85.69
2019-05-03T07:30:04.838Z,85.41
2019-05-03T07:31:04.773Z,85.78
2019-05-03T07:32:05.053Z,86.36
2019-05-03T07:33:04.848Z,86.16
2019-05-03T07:34:05.062Z,87.21
2019-05-03T07:35:04.492Z,86.45
2019-05-03T07:36:05.131Z,86.45
2019-05-03T07:37:03.158Z,84.22
2019-05-03T07:38:03.117Z,84.41
2019-05-03T07:39:03.072Z,84.31
2019-05-03T07:40:04.734Z,84.22
2019-05-03T07:41:05.088Z,84.22
2019-05-03T07:42:05.232Z,83.74
2019-05-03T07:43:04.550Z,84.41
2019-05-03T07:44:02.916Z,83.69
2019-05-03T07:45:04.811Z,83.93
2019-05-03T07:46:02.850Z,83.93
2019-05-03T07:47:04.853Z,83.88
2019-05-03T07:48:04.552Z,84.07
2019-05-03T07:49:04.883Z,83.88
2019-05-03T07:50:04.887Z,82.73
2019-05-03T07:51:02.676Z,82.83
2019-05-03T07:52:02.643Z,82.64
2019-05-03T07:53:04.504Z,83.31
2019-05-03T07:54:04.543Z,84.16
2019-05-03T07:55:04.490Z,84.45
2019-05-03T07:56:02.507Z,82.83
2019-05-03T07:57:02.479Z,82.73
2019-05-03T07:58:04.533Z,82.73
2019-05-03T07:59:04.152Z,82.45
2019-05-03T08:00:02.387Z,82.54
2019-05-03T08:01:07.158Z,83.78
2019-05-03T08:02:02.304Z,82.17
2019-05-03T08:03:02.274Z,82.12
2019-05-03T08:04:02.229Z,82.31
2019-05-03T08:05:02.203Z,81.93
2019-05-03T08:06:02.160Z,83.59
2019-05-03T08:07:02.130Z,82.31
2019-05-03T08:08:02.097Z,82.35
2019-05-03T08:09:02.072Z,83.50
2019-05-03T08:10:02.032Z,82.45
2019-05-03T08:11:01.993Z,82.35
2019-05-03T08:12:01.969Z,82.26
2019-05-03T08:13:01.936Z,81.97
2019-05-03T08:14:01.895Z,82.64
2019-05-03T08:15:01.858Z,81.78
2019-05-03T08:16:01.837Z,82.17
2019-05-03T08:17:01.786Z,82.73
2019-05-03T08:18:01.758Z,81.21
2019-05-03T08:19:01.719Z,82.26
2019-05-03T08:20:01.695Z,82.17
2019-05-03T08:21:01.658Z,81.68
2019-05-03T08:22:01.624Z,82.26
2019-05-03T08:23:01.589Z,81.97
2019-05-03T08:24:01.551Z,82.26
2019-05-03T08:25:01.525Z,81.97
2019-05-03T08:26:01.487Z,81.30
2019-05-03T08:27:01.464Z,83.31
2019-05-03T08:28:01.418Z,81.78
2019-05-03T08:29:14.816Z,81.78
2019-05-03T08:30:01.368Z,82.07
2019-05-03T08:31:01.316Z,81.68
2019-05-03T08:32:01.289Z,82.64
2019-05-03T08:33:01.255Z,82.07
2019-05-03T08:34:01.226Z,82.07
2019-05-03T08:35:01.244Z,81.97
2019-05-03T08:36:01.146Z,81.40
2019-05-03T08:37:01.120Z,81.21
2019-05-03T08:38:01.081Z,81.21
2019-05-03T08:39:01.054Z,81.73
2019-05-03T08:40:01.017Z,82.01
2019-05-03T08:41:00.980Z,81.73
2019-05-03T08:42:00.947Z,82.40
2019-05-03T08:43:00.917Z,81.54
2019-05-03T08:44:00.880Z,80.68
2019-05-03T08:45:00.853Z,79.97
2019-05-03T08:46:00.830Z,80.64
2019-05-03T08:47:00.776Z,80.20
2019-05-03T08:48:00.750Z,80.77
2019-05-03T08:49:00.725Z,80.58
2019-05-03T08:50:00.696Z,81.06
2019-05-03T08:51:00.642Z,81.44
2019-05-03T08:52:00.621Z,81.15
2019-05-03T08:53:00.582Z,79.25
2019-05-03T08:54:00.550Z,79.53
2019-05-03T08:55:00.507Z,79.25
2019-05-03T08:56:00.486Z,80.96
2019-05-03T08:57:00.441Z,79.59
2019-05-03T08:58:00.413Z,79.53
2019-05-03T08:59:00.377Z,80.30
2019-05-03T09:00:00.341Z,79.78
2019-05-03T09:01:00.308Z,80.58
2019-05-03T09:02:03.486Z,80.30
2019-05-03T09:03:00.248Z,80.68
2019-05-03T09:04:00.220Z,80.20
2019-05-03T09:05:00.187Z,79.91
2019-05-03T09:06:00.143Z,78.49
2019-05-03T09:07:00.117Z,79.91
2019-05-03T09:08:00.087Z,79.44
2019-05-03T09:09:00.043Z,79.82
2019-05-03T09:10:00.013Z,78.77
2019-05-03T09:10:59.988Z,78.49
2019-05-03T09:11:59.948Z,80.30
2019-05-03T09:12:59.907Z,79.91
2019-05-03T09:13:59.885Z,79.53
2019-05-03T09:14:59.848Z,78.86
2019-05-03T09:15:59.885Z,80.20
2019-05-03T09:16:59.783Z,80.39
2019-05-03T09:17:59.748Z,79.15
2019-05-03T09:18:59.757Z,78.20
2019-05-03T09:19:59.684Z,79.91
2019-05-03T09:20:59.638Z,80.49
2019-05-03T09:21:59.619Z,80.68
2019-05-03T09:22:59.584Z,79.06
2019-05-03T09:23:59.555Z,79.48
2019-05-03T09:24:59.513Z,79.44
2019-05-03T09:25:59.479Z,79.25
2019-05-03T09:26:59.452Z,79.15
2019-05-03T09:27:59.418Z,79.35
2019-05-03T09:28:59.390Z,79.19
2019-05-03T09:29:59.352Z,79.57
2019-05-03T09:30:59.318Z,79.19
2019-05-03T09:31:59.287Z,79.28
2019-05-03T09:32:59.254Z,78.91
2019-05-03T09:33:59.217Z,78.72
2019-05-03T09:34:59.185Z,78.91
2019-05-03T09:35:59.165Z,79.19
2019-05-03T09:36:59.137Z,78.23
2019-05-03T09:37:59.082Z,78.91
2019-05-03T09:38:59.060Z,79.77
2019-05-03T09:39:59.024Z,79.10
2019-05-03T09:40:58.984Z,78.72
2019-05-03T09:41:58.953Z,78.67
2019-05-03T09:42:58.923Z,79.10
2019-05-03T09:43:58.888Z,78.39
2019-05-03T09:44:58.858Z,78.52
2019-05-03T09:45:58.820Z,78.20
2019-05-03T09:46:58.789Z,78.58
2019-05-03T09:47:58.755Z,79.06
2019-05-03T09:49:12.635Z,78.39
2019-05-03T09:49:58.690Z,78.67
2019-05-03T09:50:58.665Z,79.44
2019-05-03T09:51:58.685Z,79.72
2019-05-03T09:52:58.589Z,78.86
2019-05-03T09:53:58.554Z,79.10
2019-05-03T09:54:58.521Z,78.96
2019-05-03T09:55:58.524Z,78.77
2019-05-03T09:56:58.964Z,79.28
2019-05-03T09:57:58.419Z,79.28
2019-05-03T09:58:58.401Z,79.00
2019-05-03T10:00:00.147Z,78.52
2019-05-03T10:00:58.334Z,78.86
2019-05-03T10:01:58.299Z,79.15
2019-05-03T10:02:58.265Z,79.28
2019-05-03T10:03:58.235Z,78.43
2019-05-03T10:04:58.194Z,79.86
2019-05-03T10:05:58.157Z,78.43
2019-05-03T10:06:58.136Z,79.19
2019-05-03T10:07:58.113Z,78.72
2019-05-03T10:08:58.070Z,78.85
2019-05-03T10:09:58.025Z,78.47
2019-05-03T10:10:57.992Z,77.89
2019-05-03T10:11:57.970Z,77.08
2019-05-03T10:12:57.945Z,77.26
2019-05-03T10:13:57.898Z,75.74
2019-05-03T10:14:57.870Z,75.30
2019-05-03T10:15:57.837Z,75.68
2019-05-03T10:16:57.803Z,73.48
2019-05-03T10:17:57.774Z,73.86
2019-05-03T10:18:57.741Z,72.72
2019-05-03T10:19:57.707Z,71.76
2019-05-03T10:20:57.682Z,72.18
2019-05-03T10:21:57.648Z,71.13
2019-05-03T10:22:57.612Z,69.50
2019-05-03T10:23:57.581Z,68.87
2019-05-03T10:24:57.558Z,68.49
2019-05-03T10:25:57.522Z,67.69
2019-05-03T10:26:57.497Z,67.21
2019-05-03T10:27:57.472Z,69.31
2019-05-03T10:28:57.435Z,69.70
2019-05-03T10:30:09.647Z,67.59
2019-05-03T10:30:57.379Z,68.35
2019-05-03T10:31:57.359Z,69.79
2019-05-03T10:32:57.308Z,71.51
2019-05-03T10:33:57.285Z,70.75
2019-05-03T10:34:57.281Z,69.50
2019-05-03T10:35:57.231Z,67.49
2019-05-03T10:36:57.205Z,68.64
2019-05-03T10:37:57.163Z,69.21
2019-05-03T10:38:57.141Z,69.98
2019-05-03T10:39:57.093Z,68.64
2019-05-03T10:40:57.059Z,70.75
2019-05-03T10:41:57.032Z,70.84
2019-05-03T10:42:57.004Z,71.13
2019-05-03T10:43:56.973Z,72.56
2019-05-03T10:44:56.937Z,69.70
2019-05-03T10:45:56.909Z,69.70
2019-05-03T10:46:56.889Z,69.79
2019-05-03T10:47:56.848Z,69.89
2019-05-03T10:48:56.828Z,69.98
2019-05-03T10:49:56.793Z,71.22
2019-05-03T10:50:56.759Z,70.46
2019-05-03T10:51:56.730Z,69.89
2019-05-03T10:52:56.698Z,69.79
2019-05-03T10:53:56.675Z,70.36
2019-05-03T10:54:56.648Z,70.27
2019-05-03T10:55:56.608Z,70.65
2019-05-03T10:56:56.580Z,70.56
2019-05-03T10:57:56.543Z,69.70
2019-05-03T10:58:56.515Z,67.46
2019-05-03T10:59:56.484Z,66.73
2019-05-03T11:00:56.781Z,66.06
2019-05-03T11:01:56.420Z,65.97
2019-05-03T11:02:56.382Z,64.72
2019-05-03T11:03:56.354Z,66.06
2019-05-03T11:04:56.328Z,66.54
2019-05-03T11:05:56.296Z,66.73
2019-05-03T11:06:56.264Z,64.43
2019-05-03T11:07:56.236Z,65.39
2019-05-03T11:08:56.208Z,64.62
2019-05-03T11:09:56.175Z,63.86
2019-05-03T11:10:56.164Z,63.67
2019-05-03T11:11:56.120Z,65.87
2019-05-03T11:12:56.091Z,65.68
2019-05-03T11:13:56.051Z,64.91
2019-05-03T11:14:56.016Z,65.77
2019-05-03T11:15:56.020Z,66.44
2019-05-03T11:16:55.960Z,66.47
2019-05-03T11:17:55.929Z,66.96
2019-05-03T11:18:55.900Z,66.09
2019-05-03T11:19:55.881Z,63.42
2019-05-03T11:20:55.837Z,63.60
2019-05-03T11:21:55.809Z,63.42
2019-05-03T11:22:55.777Z,63.03
2019-05-03T11:23:55.770Z,63.23
2019-05-03T11:24:55.725Z,63.51
2019-05-03T11:25:55.690Z,63.67
2019-05-03T11:26:55.894Z,63.10
2019-05-03T11:27:55.620Z,64.34
2019-05-03T11:29:00.404Z,64.25
2019-05-03T11:29:55.723Z,64.95
2019-05-03T11:31:01.861Z,63.60
2019-05-03T11:31:55.502Z,64.18
2019-05-03T11:32:55.728Z,63.70
2019-05-03T11:33:55.450Z,63.42
2019-05-03T11:34:55.529Z,63.13
2019-05-03T11:35:55.384Z,62.65
2019-05-03T11:36:55.365Z,62.71
2019-05-03T11:37:55.329Z,62.43
2019-05-03T11:38:55.845Z,61.76
2019-05-03T11:39:55.867Z,61.38
2019-05-03T11:40:56.017Z,61.47
2019-05-03T11:41:55.201Z,61.57
2019-05-03T11:42:55.415Z,60.13
2019-05-03T11:43:55.147Z,60.61
2019-05-03T11:44:55.105Z,61.41
2019-05-03T11:45:55.553Z,60.16
2019-05-03T11:46:55.227Z,60.42
2019-05-03T11:47:55.192Z,60.90
2019-05-03T11:48:54.998Z,61.76
2019-05-03T11:49:54.961Z,61.66
2019-05-03T11:50:54.925Z,62.04
2019-05-03T11:51:55.623Z,61.95
2019-05-03T11:52:55.372Z,60.83
2019-05-03T11:53:54.844Z,61.41
2019-05-03T11:54:55.310Z,61.51
2019-05-03T11:55:55.279Z,60.86
2019-05-03T11:56:55.597Z,60.45
2019-05-03T11:57:56.679Z,59.69
2019-05-03T11:58:54.981Z,60.16
2019-05-03T11:59:54.891Z,60.00
2019-05-03T12:01:11.204Z,59.62
2019-05-03T12:01:55.359Z,60.29
2019-05-03T12:02:55.636Z,58.66
2019-05-03T12:03:55.572Z,59.14
2019-05-03T12:04:55.262Z,57.61
2019-05-03T12:05:55.181Z,57.16
2019-05-03T12:06:54.992Z,58.59
2019-05-03T12:07:54.866Z,59.94
2019-05-03T12:08:55.397Z,57.95
2019-05-03T12:09:54.695Z,56.32
2019-05-03T12:11:00.630Z,53.33
2019-05-03T12:11:55.410Z,54.32
2019-05-03T12:12:55.372Z,56.13
2019-05-03T12:14:02.348Z,56.04
2019-05-03T12:14:54.843Z,54.79
2019-05-03T12:15:55.265Z,54.50
2019-05-03T12:17:14.642Z,54.22
2019-05-03T12:17:58.193Z,53.81
2019-05-03T12:18:54.838Z,54.89
2019-05-03T12:19:57.020Z,53.55
2019-05-03T12:20:56.901Z,53.45
2019-05-03T12:21:54.448Z,52.71
2019-05-03T12:22:54.633Z,52.33
2019-05-03T12:23:56.200Z,53.48
2019-05-03T12:24:54.418Z,54.24
2019-05-03T12:25:54.517Z,53.67
2019-05-03T12:26:55.696Z,54.15
2019-05-03T12:27:53.829Z,52.62
2019-05-03T12:28:53.790Z,51.37
2019-05-03T12:29:53.764Z,50.87
2019-05-03T12:30:53.742Z,51.06
2019-05-03T12:31:54.838Z,53.28
2019-05-03T12:32:54.670Z,53.22
2019-05-03T12:33:55.115Z,53.50
2019-05-03T12:34:55.101Z,53.60
2019-05-03T12:35:55.199Z,53.15
2019-05-03T12:36:53.573Z,52.57
2019-05-03T12:37:55.514Z,51.51
2019-05-03T12:38:54.777Z,50.24
2019-05-03T12:39:54.841Z,49.84
2019-05-03T12:40:54.615Z,51.06
2019-05-03T12:41:55.001Z,50.77
2019-05-03T12:42:55.248Z,51.44
2019-05-03T12:43:55.141Z,51.70
2019-05-03T12:44:55.165Z,52.59
2019-05-03T12:45:53.310Z,52.40
2019-05-03T12:46:53.285Z,51.34
2019-05-03T12:47:53.251Z,52.11
2019-05-03T12:48:53.233Z,51.25
2019-05-03T12:49:53.195Z,52.11
2019-05-03T12:50:53.510Z,51.92
2019-05-03T12:51:53.136Z,52.20